sensor_id;sensor_type;location;lat;lon;timestamp;temperature;humidity
20722;DHT22;10522;52.198;9.890;2022-09-09T00:00:29;14.00;99.90
20722;DHT22;10522;52.198;9.890;2022-09-09T00:03:12;14.00;99.90
20722;DHT22;10522;52.198;9.890;2022-09-09T00:09:01;14.00;99.90
20722;DHT22;10522;52.198;9.890;2022-09-09T00:14:55;13.90;99.90
20722;DHT22;10522;52.198;9.890;2022-09-09T00:19:58;13.80;99.90
20722;DHT22;10522;52.198;9.890;2022-09-09T00:22:28;13.90;99.90
20722;DHT22;10522;52.198;9.890;2022-09-09T00:25:08;13.90;99.90
20722;DHT22;10522;52.198;9.890;2022-09-09T00:27:43;13.90;99.90
20722;DHT22;10522;52.198;9.890;2022-09-09T00:30:26;13.90;99.90
20722;DHT22;10522;52.198;9.890;2022-09-09T00:33:01;13.90;99.90
20722;DHT22;10522;52.198;9.890;2022-09-09T00:35:40;13.90;99.90
20722;DHT22;10522;52.198;9.890;2022-09-09T00:40:52;13.90;99.90
20722;DHT22;10522;52.198;9.890;2022-09-09T00:49:26;13.90;99.90
20722;DHT22;10522;52.198;9.890;2022-09-09T00:57:27;13.70;99.90
20722;DHT22;10522;52.198;9.890;2022-09-09T01:00:15;13.60;99.90
20722;DHT22;10522;52.198;9.890;2022-09-09T01:02:49;13.60;99.90
20722;DHT22;10522;52.198;9.890;2022-09-09T01:08:01;13.60;99.90
20722;DHT22;10522;52.198;9.890;2022-09-09T01:10:41;13.50;99.90
20722;DHT22;10522;52.198;9.890;2022-09-09T01:13:18;13.50;99.90
20722;DHT22;10522;52.198;9.890;2022-09-09T01:15:46;13.50;99.90
20722;DHT22;10522;52.198;9.890;2022-09-09T01:18:14;13.40;99.90
20722;DHT22;10522;52.198;9.890;2022-09-09T01:20:49;13.40;99.90
20722;DHT22;10522;52.198;9.890;2022-09-09T01:23:47;13.40;99.90
20722;DHT22;10522;52.198;9.890;2022-09-09T01:26:35;13.30;99.90
20722;DHT22;10522;52.198;9.890;2022-09-09T01:29:04;13.20;99.90
20722;DHT22;10522;52.198;9.890;2022-09-09T01:31:36;13.20;99.90
20722;DHT22;10522;52.198;9.890;2022-09-09T01:34:04;13.10;99.90
20722;DHT22;10522;52.198;9.890;2022-09-09T01:37:03;13.10;99.90
20722;DHT22;10522;52.198;9.890;2022-09-09T01:39:30;13.20;99.90
20722;DHT22;10522;52.198;9.890;2022-09-09T01:41:57;13.20;99.90
20722;DHT22;10522;52.198;9.890;2022-09-09T01:44:23;13.10;99.90
20722;DHT22;10522;52.198;9.890;2022-09-09T01:46:50;13.10;99.90
20722;DHT22;10522;52.198;9.890;2022-09-09T01:49:16;13.10;99.90
20722;DHT22;10522;52.198;9.890;2022-09-09T01:51:43;13.00;99.90
20722;DHT22;10522;52.198;9.890;2022-09-09T01:54:09;13.00;99.90
20722;DHT22;10522;52.198;9.890;2022-09-09T02:02:18;13.00;99.90
20722;DHT22;10522;52.198;9.890;2022-09-09T02:04:48;13.00;99.90
20722;DHT22;10522;52.198;9.890;2022-09-09T02:07:40;13.00;99.90
20722;DHT22;10522;52.198;9.890;2022-09-09T02:10:17;13.00;99.90
20722;DHT22;10522;52.198;9.890;2022-09-09T02:12:51;13.10;99.90
20722;DHT22;10522;52.198;9.890;2022-09-09T02:18:01;13.10;99.90
20722;DHT22;10522;52.198;9.890;2022-09-09T02:20:32;13.20;99.90
20722;DHT22;10522;52.198;9.890;2022-09-09T02:22:59;13.10;99.90
20722;DHT22;10522;52.198;9.890;2022-09-09T02:25:28;13.10;99.90
20722;DHT22;10522;52.198;9.890;2022-09-09T02:27:55;13.20;99.90
20722;DHT22;10522;52.198;9.890;2022-09-09T02:30:23;13.20;99.90
20722;DHT22;10522;52.198;9.890;2022-09-09T02:32:50;13.20;99.90
20722;DHT22;10522;52.198;9.890;2022-09-09T02:35:22;13.20;99.90
20722;DHT22;10522;52.198;9.890;2022-09-09T02:37:51;13.20;99.90
20722;DHT22;10522;52.198;9.890;2022-09-09T02:40:18;13.20;99.90
20722;DHT22;10522;52.198;9.890;2022-09-09T02:42:46;13.10;99.90
20722;DHT22;10522;52.198;9.890;2022-09-09T02:45:15;13.10;99.90
20722;DHT22;10522;52.198;9.890;2022-09-09T02:47:47;13.20;99.90
20722;DHT22;10522;52.198;9.890;2022-09-09T02:50:32;13.30;99.90
20722;DHT22;10522;52.198;9.890;2022-09-09T02:58:17;13.40;99.90
20722;DHT22;10522;52.198;9.890;2022-09-09T03:00:45;13.60;99.90
20722;DHT22;10522;52.198;9.890;2022-09-09T03:03:11;13.70;99.90
20722;DHT22;10522;52.198;9.890;2022-09-09T03:05:37;13.80;99.90
20722;DHT22;10522;52.198;9.890;2022-09-09T03:08:04;13.80;99.90
20722;DHT22;10522;52.198;9.890;2022-09-09T03:10:31;14.00;99.90
20722;DHT22;10522;52.198;9.890;2022-09-09T03:12:57;14.00;99.90
20722;DHT22;10522;52.198;9.890;2022-09-09T03:15:23;14.10;99.90
20722;DHT22;10522;52.198;9.890;2022-09-09T03:17:48;14.10;99.90
20722;DHT22;10522;52.198;9.890;2022-09-09T03:20:14;14.10;99.90
20722;DHT22;10522;52.198;9.890;2022-09-09T03:22:40;14.20;99.90
20722;DHT22;10522;52.198;9.890;2022-09-09T03:25:06;14.20;99.90
20722;DHT22;10522;52.198;9.890;2022-09-09T03:27:32;14.30;99.90
20722;DHT22;10522;52.198;9.890;2022-09-09T03:29:58;14.40;99.90
20722;DHT22;10522;52.198;9.890;2022-09-09T03:32:24;14.40;99.90
20722;DHT22;10522;52.198;9.890;2022-09-09T03:34:51;14.50;99.90
20722;DHT22;10522;52.198;9.890;2022-09-09T03:37:18;14.50;99.90
20722;DHT22;10522;52.198;9.890;2022-09-09T03:39:44;14.50;99.90
20722;DHT22;10522;52.198;9.890;2022-09-09T03:42:13;14.50;99.90
20722;DHT22;10522;52.198;9.890;2022-09-09T03:44:40;14.50;99.90
20722;DHT22;10522;52.198;9.890;2022-09-09T03:47:07;14.50;99.90
20722;DHT22;10522;52.198;9.890;2022-09-09T03:49:33;14.40;99.90
20722;DHT22;10522;52.198;9.890;2022-09-09T03:51:58;14.40;99.90
20722;DHT22;10522;52.198;9.890;2022-09-09T03:54:25;14.40;99.90
20722;DHT22;10522;52.198;9.890;2022-09-09T03:56:51;14.50;99.90
20722;DHT22;10522;52.198;9.890;2022-09-09T03:59:16;14.50;99.90
20722;DHT22;10522;52.198;9.890;2022-09-09T04:01:42;14.50;99.90
20722;DHT22;10522;52.198;9.890;2022-09-09T04:04:08;14.40;99.90
20722;DHT22;10522;52.198;9.890;2022-09-09T04:06:34;14.40;99.90
20722;DHT22;10522;52.198;9.890;2022-09-09T04:09:00;14.50;99.90
20722;DHT22;10522;52.198;9.890;2022-09-09T04:11:28;14.50;99.90
20722;DHT22;10522;52.198;9.890;2022-09-09T04:13:53;14.60;99.90
20722;DHT22;10522;52.198;9.890;2022-09-09T04:16:19;14.70;99.90
20722;DHT22;10522;52.198;9.890;2022-09-09T04:18:45;14.60;99.90
20722;DHT22;10522;52.198;9.890;2022-09-09T04:21:11;14.70;99.90
20722;DHT22;10522;52.198;9.890;2022-09-09T04:23:40;14.70;99.90
20722;DHT22;10522;52.198;9.890;2022-09-09T04:26:06;14.70;99.90
20722;DHT22;10522;52.198;9.890;2022-09-09T04:28:33;14.70;99.90
20722;DHT22;10522;52.198;9.890;2022-09-09T04:31:17;14.70;99.90
20722;DHT22;10522;52.198;9.890;2022-09-09T04:33:44;14.70;99.90
20722;DHT22;10522;52.198;9.890;2022-09-09T04:36:09;14.70;99.90
20722;DHT22;10522;52.198;9.890;2022-09-09T04:38:35;14.70;99.90
20722;DHT22;10522;52.198;9.890;2022-09-09T04:41:01;14.70;99.90
20722;DHT22;10522;52.198;9.890;2022-09-09T04:43:27;14.70;99.90
20722;DHT22;10522;52.198;9.890;2022-09-09T04:45:53;14.70;99.90
20722;DHT22;10522;52.198;9.890;2022-09-09T04:48:20;14.80;99.90
20722;DHT22;10522;52.198;9.890;2022-09-09T04:53:25;14.80;99.90
20722;DHT22;10522;52.198;9.890;2022-09-09T04:56:05;14.80;99.90
20722;DHT22;10522;52.198;9.890;2022-09-09T04:58:32;14.80;99.90
20722;DHT22;10522;52.198;9.890;2022-09-09T05:01:08;14.80;99.90
20722;DHT22;10522;52.198;9.890;2022-09-09T05:03:35;14.80;99.90
20722;DHT22;10522;52.198;9.890;2022-09-09T05:06:08;14.80;99.90
20722;DHT22;10522;52.198;9.890;2022-09-09T05:08:39;14.90;99.90
20722;DHT22;10522;52.198;9.890;2022-09-09T05:11:16;14.90;99.90
20722;DHT22;10522;52.198;9.890;2022-09-09T05:13:42;14.90;99.90
20722;DHT22;10522;52.198;9.890;2022-09-09T05:16:08;14.90;99.90
20722;DHT22;10522;52.198;9.890;2022-09-09T05:18:39;15.00;99.90
20722;DHT22;10522;52.198;9.890;2022-09-09T05:21:05;15.00;99.90
20722;DHT22;10522;52.198;9.890;2022-09-09T05:23:32;15.00;99.90
20722;DHT22;10522;52.198;9.890;2022-09-09T05:25:59;15.00;99.90
20722;DHT22;10522;52.198;9.890;2022-09-09T05:28:25;15.00;99.90
20722;DHT22;10522;52.198;9.890;2022-09-09T05:31:09;15.00;99.90
20722;DHT22;10522;52.198;9.890;2022-09-09T05:33:37;15.00;99.90
20722;DHT22;10522;52.198;9.890;2022-09-09T05:36:08;15.10;99.90
20722;DHT22;10522;52.198;9.890;2022-09-09T05:38:36;15.10;99.90
20722;DHT22;10522;52.198;9.890;2022-09-09T05:41:03;15.20;99.90
20722;DHT22;10522;52.198;9.890;2022-09-09T05:43:29;15.30;99.90
20722;DHT22;10522;52.198;9.890;2022-09-09T05:46:12;15.40;99.90
20722;DHT22;10522;52.198;9.890;2022-09-09T05:48:40;15.40;99.90
20722;DHT22;10522;52.198;9.890;2022-09-09T05:51:10;15.50;99.90
20722;DHT22;10522;52.198;9.890;2022-09-09T05:53:38;15.50;99.90
20722;DHT22;10522;52.198;9.890;2022-09-09T05:56:04;15.60;99.90
20722;DHT22;10522;52.198;9.890;2022-09-09T05:58:34;15.70;99.90
20722;DHT22;10522;52.198;9.890;2022-09-09T06:01:20;15.70;99.90
20722;DHT22;10522;52.198;9.890;2022-09-09T06:03:48;15.80;99.90
20722;DHT22;10522;52.198;9.890;2022-09-09T06:06:21;15.90;99.90
20722;DHT22;10522;52.198;9.890;2022-09-09T06:08:49;15.90;99.90
20722;DHT22;10522;52.198;9.890;2022-09-09T06:11:18;15.80;99.90
20722;DHT22;10522;52.198;9.890;2022-09-09T06:13:44;15.90;99.90
20722;DHT22;10522;52.198;9.890;2022-09-09T06:16:12;15.90;99.90
20722;DHT22;10522;52.198;9.890;2022-09-09T06:18:39;16.00;99.90
20722;DHT22;10522;52.198;9.890;2022-09-09T06:21:07;16.00;99.90
20722;DHT22;10522;52.198;9.890;2022-09-09T06:23:33;16.00;99.90
20722;DHT22;10522;52.198;9.890;2022-09-09T06:28:36;16.40;99.90
20722;DHT22;10522;52.198;9.890;2022-09-09T06:31:04;16.50;99.90
20722;DHT22;10522;52.198;9.890;2022-09-09T06:33:31;16.60;99.90
20722;DHT22;10522;52.198;9.890;2022-09-09T06:35:57;16.80;99.90
20722;DHT22;10522;52.198;9.890;2022-09-09T06:38:23;16.90;99.90
20722;DHT22;10522;52.198;9.890;2022-09-09T06:40:56;16.90;99.90
20722;DHT22;10522;52.198;9.890;2022-09-09T06:43:23;17.10;99.90
20722;DHT22;10522;52.198;9.890;2022-09-09T06:46:00;17.20;99.90
20722;DHT22;10522;52.198;9.890;2022-09-09T06:48:26;17.30;99.90
20722;DHT22;10522;52.198;9.890;2022-09-09T06:51:11;17.40;99.90
20722;DHT22;10522;52.198;9.890;2022-09-09T06:53:39;17.40;99.90
20722;DHT22;10522;52.198;9.890;2022-09-09T06:58:40;17.60;99.90
20722;DHT22;10522;52.198;9.890;2022-09-09T07:01:18;17.80;99.90
20722;DHT22;10522;52.198;9.890;2022-09-09T07:03:53;17.90;99.90
20722;DHT22;10522;52.198;9.890;2022-09-09T07:09:03;17.80;99.90
20722;DHT22;10522;52.198;9.890;2022-09-09T07:11:47;17.80;99.90
20722;DHT22;10522;52.198;9.890;2022-09-09T07:14:15;17.80;99.90
20722;DHT22;10522;52.198;9.890;2022-09-09T07:16:50;17.90;99.90
20722;DHT22;10522;52.198;9.890;2022-09-09T07:19:15;17.80;99.90
20722;DHT22;10522;52.198;9.890;2022-09-09T07:21:50;17.90;99.90
20722;DHT22;10522;52.198;9.890;2022-09-09T07:24:16;17.90;99.90
20722;DHT22;10522;52.198;9.890;2022-09-09T07:26:41;17.90;99.90
20722;DHT22;10522;52.198;9.890;2022-09-09T07:29:08;17.90;99.90
20722;DHT22;10522;52.198;9.890;2022-09-09T07:31:35;18.10;99.90
20722;DHT22;10522;52.198;9.890;2022-09-09T07:34:02;18.10;99.90
20722;DHT22;10522;52.198;9.890;2022-09-09T07:36:31;18.20;99.90
20722;DHT22;10522;52.198;9.890;2022-09-09T07:39:02;18.30;99.90
20722;DHT22;10522;52.198;9.890;2022-09-09T07:41:39;18.50;99.90
20722;DHT22;10522;52.198;9.890;2022-09-09T07:44:11;18.40;99.90
20722;DHT22;10522;52.198;9.890;2022-09-09T07:46:38;18.40;99.90
20722;DHT22;10522;52.198;9.890;2022-09-09T07:49:07;18.40;99.90
20722;DHT22;10522;52.198;9.890;2022-09-09T07:51:35;18.60;99.90
20722;DHT22;10522;52.198;9.890;2022-09-09T07:54:03;18.80;99.90
20722;DHT22;10522;52.198;9.890;2022-09-09T07:56:45;18.90;99.90
20722;DHT22;10522;52.198;9.890;2022-09-09T07:59:27;18.90;99.90
20722;DHT22;10522;52.198;9.890;2022-09-09T08:02:18;18.90;99.90
20722;DHT22;10522;52.198;9.890;2022-09-09T08:04:43;18.80;99.90
20722;DHT22;10522;52.198;9.890;2022-09-09T08:07:14;18.80;99.90
20722;DHT22;10522;52.198;9.890;2022-09-09T08:09:49;18.80;99.90
20722;DHT22;10522;52.198;9.890;2022-09-09T08:12:15;18.80;99.90
20722;DHT22;10522;52.198;9.890;2022-09-09T08:14:41;18.80;99.90
20722;DHT22;10522;52.198;9.890;2022-09-09T08:17:08;18.90;99.90
20722;DHT22;10522;52.198;9.890;2022-09-09T08:19:34;19.00;99.90
20722;DHT22;10522;52.198;9.890;2022-09-09T08:24:40;19.30;99.90
20722;DHT22;10522;52.198;9.890;2022-09-09T08:27:07;19.40;99.90
20722;DHT22;10522;52.198;9.890;2022-09-09T08:29:35;19.40;99.90
20722;DHT22;10522;52.198;9.890;2022-09-09T08:32:04;19.40;99.90
20722;DHT22;10522;52.198;9.890;2022-09-09T08:34:30;19.30;99.90
20722;DHT22;10522;52.198;9.890;2022-09-09T08:36:56;19.50;99.90
20722;DHT22;10522;52.198;9.890;2022-09-09T08:39:22;19.50;99.90
20722;DHT22;10522;52.198;9.890;2022-09-09T08:42:15;19.60;99.90
20722;DHT22;10522;52.198;9.890;2022-09-09T08:44:52;19.60;99.90
20722;DHT22;10522;52.198;9.890;2022-09-09T08:50:30;20.30;99.90
20722;DHT22;10522;52.198;9.890;2022-09-09T08:53:05;20.80;99.90
20722;DHT22;10522;52.198;9.890;2022-09-09T08:55:49;20.90;99.90
20722;DHT22;10522;52.198;9.890;2022-09-09T08:58:41;21.20;99.90
20722;DHT22;10522;52.198;9.890;2022-09-09T09:04:35;21.40;99.90
20722;DHT22;10522;52.198;9.890;2022-09-09T09:12:52;20.50;99.90
20722;DHT22;10522;52.198;9.890;2022-09-09T09:17:46;20.90;99.90
20722;DHT22;10522;52.198;9.890;2022-09-09T09:20:16;21.10;99.90
20722;DHT22;10522;52.198;9.890;2022-09-09T09:22:50;21.40;99.90
20722;DHT22;10522;52.198;9.890;2022-09-09T09:25:20;21.40;99.90
20722;DHT22;10522;52.198;9.890;2022-09-09T09:28:00;21.40;99.90
20722;DHT22;10522;52.198;9.890;2022-09-09T09:31:18;21.80;99.90
20722;DHT22;10522;52.198;9.890;2022-09-09T09:33:19;21.90;99.90
20722;DHT22;10522;52.198;9.890;2022-09-09T09:35:52;21.70;99.90
20722;DHT22;10522;52.198;9.890;2022-09-09T09:38:24;21.80;99.90
20722;DHT22;10522;52.198;9.890;2022-09-09T09:41:00;21.80;99.90
20722;DHT22;10522;52.198;9.890;2022-09-09T09:43:34;21.80;99.90
20722;DHT22;10522;52.198;9.890;2022-09-09T09:46:00;21.60;99.90
20722;DHT22;10522;52.198;9.890;2022-09-09T09:48:27;21.70;99.90
20722;DHT22;10522;52.198;9.890;2022-09-09T09:50:58;21.60;99.90
20722;DHT22;10522;52.198;9.890;2022-09-09T09:53:33;21.40;99.90
20722;DHT22;10522;52.198;9.890;2022-09-09T09:56:08;21.60;99.90
20722;DHT22;10522;52.198;9.890;2022-09-09T09:58:49;21.80;99.90
20722;DHT22;10522;52.198;9.890;2022-09-09T10:01:29;21.70;99.90
20722;DHT22;10522;52.198;9.890;2022-09-09T10:04:17;21.50;99.90
20722;DHT22;10522;52.198;9.890;2022-09-09T10:06:44;21.10;99.90
20722;DHT22;10522;52.198;9.890;2022-09-09T10:09:30;20.70;99.90
20722;DHT22;10522;52.198;9.890;2022-09-09T10:14:42;20.30;99.90
20722;DHT22;10522;52.198;9.890;2022-09-09T10:19:46;20.50;99.90
20722;DHT22;10522;52.198;9.890;2022-09-09T10:22:26;20.50;99.90
20722;DHT22;10522;52.198;9.890;2022-09-09T10:30:29;21.40;99.90
20722;DHT22;10522;52.198;9.890;2022-09-09T10:33:18;22.30;99.90
20722;DHT22;10522;52.198;9.890;2022-09-09T10:38:42;23.30;99.90
20722;DHT22;10522;52.198;9.890;2022-09-09T10:41:18;22.70;99.90
20722;DHT22;10522;52.198;9.890;2022-09-09T10:46:40;22.90;99.90
20722;DHT22;10522;52.198;9.890;2022-09-09T10:49:37;23.30;99.90
20722;DHT22;10522;52.198;9.890;2022-09-09T10:55:40;22.80;99.90
20722;DHT22;10522;52.198;9.890;2022-09-09T10:58:12;23.00;99.90
20722;DHT22;10522;52.198;9.890;2022-09-09T11:00:52;22.60;99.90
20722;DHT22;10522;52.198;9.890;2022-09-09T11:03:26;22.50;99.90
20722;DHT22;10522;52.198;9.890;2022-09-09T11:06:06;22.40;99.90
20722;DHT22;10522;52.198;9.890;2022-09-09T11:08:35;22.20;99.90
20722;DHT22;10522;52.198;9.890;2022-09-09T11:13:35;21.30;99.90
20722;DHT22;10522;52.198;9.890;2022-09-09T11:22:02;20.70;99.90
20722;DHT22;10522;52.198;9.890;2022-09-09T11:24:37;20.80;99.90
20722;DHT22;10522;52.198;9.890;2022-09-09T11:27:20;20.80;99.90
20722;DHT22;10522;52.198;9.890;2022-09-09T11:30:25;20.80;99.90
20722;DHT22;10522;52.198;9.890;2022-09-09T11:33:24;20.90;99.90
20722;DHT22;10522;52.198;9.890;2022-09-09T11:41:47;20.60;99.90
20722;DHT22;10522;52.198;9.890;2022-09-09T11:44:19;20.40;99.90
20722;DHT22;10522;52.198;9.890;2022-09-09T11:46:50;20.10;99.90
20722;DHT22;10522;52.198;9.890;2022-09-09T11:49:50;19.50;99.90
20722;DHT22;10522;52.198;9.890;2022-09-09T11:52:34;19.30;99.90
20722;DHT22;10522;52.198;9.890;2022-09-09T11:55:09;19.20;99.90
20722;DHT22;10522;52.198;9.890;2022-09-09T11:57:36;19.20;99.90
20722;DHT22;10522;52.198;9.890;2022-09-09T12:00:04;19.20;99.90
20722;DHT22;10522;52.198;9.890;2022-09-09T12:02:30;19.20;99.90
20722;DHT22;10522;52.198;9.890;2022-09-09T12:07:34;19.10;99.90
20722;DHT22;10522;52.198;9.890;2022-09-09T12:12:38;19.10;99.90
20722;DHT22;10522;52.198;9.890;2022-09-09T12:17:43;19.10;99.90
20722;DHT22;10522;52.198;9.890;2022-09-09T12:20:42;19.20;99.90
20722;DHT22;10522;52.198;9.890;2022-09-09T12:23:11;19.20;99.90
20722;DHT22;10522;52.198;9.890;2022-09-09T12:36:53;19.20;99.90
20722;DHT22;10522;52.198;9.890;2022-09-09T12:39:38;19.10;99.90
20722;DHT22;10522;52.198;9.890;2022-09-09T12:42:04;19.10;99.90
20722;DHT22;10522;52.198;9.890;2022-09-09T12:44:30;19.10;99.90
20722;DHT22;10522;52.198;9.890;2022-09-09T12:47:00;19.20;99.90
20722;DHT22;10522;52.198;9.890;2022-09-09T12:49:30;19.20;99.90
20722;DHT22;10522;52.198;9.890;2022-09-09T12:52:01;19.20;99.90
20722;DHT22;10522;52.198;9.890;2022-09-09T12:54:28;19.30;99.90
20722;DHT22;10522;52.198;9.890;2022-09-09T12:56:54;19.20;99.90
20722;DHT22;10522;52.198;9.890;2022-09-09T12:59:41;19.30;99.90
20722;DHT22;10522;52.198;9.890;2022-09-09T13:02:26;19.40;99.90
20722;DHT22;10522;52.198;9.890;2022-09-09T13:04:53;19.30;99.90
20722;DHT22;10522;52.198;9.890;2022-09-09T13:07:21;19.40;99.90
20722;DHT22;10522;52.198;9.890;2022-09-09T13:09:47;19.40;99.90
20722;DHT22;10522;52.198;9.890;2022-09-09T13:12:23;19.40;99.90
20722;DHT22;10522;52.198;9.890;2022-09-09T13:14:52;19.40;99.90
20722;DHT22;10522;52.198;9.890;2022-09-09T13:17:23;19.60;99.90
20722;DHT22;10522;52.198;9.890;2022-09-09T13:19:50;19.70;99.90
20722;DHT22;10522;52.198;9.890;2022-09-09T13:22:34;19.80;99.90
20722;DHT22;10522;52.198;9.890;2022-09-09T13:25:17;19.90;99.90
20722;DHT22;10522;52.198;9.890;2022-09-09T13:27:59;20.00;99.90
20722;DHT22;10522;52.198;9.890;2022-09-09T13:30:30;20.10;99.90
20722;DHT22;10522;52.198;9.890;2022-09-09T13:33:20;20.10;99.90
20722;DHT22;10522;52.198;9.890;2022-09-09T13:35:54;20.40;99.90
20722;DHT22;10522;52.198;9.890;2022-09-09T13:38:20;20.80;99.90
20722;DHT22;10522;52.198;9.890;2022-09-09T13:41:07;21.10;99.90
20722;DHT22;10522;52.198;9.890;2022-09-09T13:43:37;21.50;99.90
20722;DHT22;10522;52.198;9.890;2022-09-09T13:46:25;21.70;99.90
20722;DHT22;10522;52.198;9.890;2022-09-09T13:48:57;22.50;99.90
20722;DHT22;10522;52.198;9.890;2022-09-09T13:53:56;23.70;99.90
20722;DHT22;10522;52.198;9.890;2022-09-09T13:56:22;24.20;99.90
20722;DHT22;10522;52.198;9.890;2022-09-09T13:58:47;23.70;99.90
20722;DHT22;10522;52.198;9.890;2022-09-09T14:01:13;23.10;99.90
20722;DHT22;10522;52.198;9.890;2022-09-09T14:03:38;22.40;99.90
20722;DHT22;10522;52.198;9.890;2022-09-09T14:06:04;21.90;99.90
20722;DHT22;10522;52.198;9.890;2022-09-09T14:08:30;21.70;99.90
20722;DHT22;10522;52.198;9.890;2022-09-09T14:11:03;21.50;99.90
20722;DHT22;10522;52.198;9.890;2022-09-09T14:13:28;21.20;99.90
20722;DHT22;10522;52.198;9.890;2022-09-09T14:15:54;21.50;99.90
20722;DHT22;10522;52.198;9.890;2022-09-09T14:18:21;21.80;99.90
20722;DHT22;10522;52.198;9.890;2022-09-09T14:20:48;22.10;99.90
20722;DHT22;10522;52.198;9.890;2022-09-09T14:23:15;22.70;99.90
20722;DHT22;10522;52.198;9.890;2022-09-09T14:25:42;23.20;99.90
20722;DHT22;10522;52.198;9.890;2022-09-09T14:28:12;23.80;99.90
20722;DHT22;10522;52.198;9.890;2022-09-09T14:30:40;24.30;99.90
20722;DHT22;10522;52.198;9.890;2022-09-09T14:33:06;24.50;99.90
20722;DHT22;10522;52.198;9.890;2022-09-09T14:35:32;23.60;99.90
20722;DHT22;10522;52.198;9.890;2022-09-09T14:37:58;23.10;99.90
20722;DHT22;10522;52.198;9.890;2022-09-09T14:40:25;22.70;99.90
20722;DHT22;10522;52.198;9.890;2022-09-09T14:42:52;22.50;99.90
20722;DHT22;10522;52.198;9.890;2022-09-09T14:45:18;23.60;99.90
20722;DHT22;10522;52.198;9.890;2022-09-09T14:48:03;25.30;99.90
20722;DHT22;10522;52.198;9.890;2022-09-09T14:50:28;26.60;99.90
20722;DHT22;10522;52.198;9.890;2022-09-09T14:52:54;27.20;99.90
20722;DHT22;10522;52.198;9.890;2022-09-09T14:55:19;27.80;99.90
20722;DHT22;10522;52.198;9.890;2022-09-09T14:57:49;28.10;99.90
20722;DHT22;10522;52.198;9.890;2022-09-09T15:00:15;28.00;99.90
20722;DHT22;10522;52.198;9.890;2022-09-09T15:02:55;27.00;99.90
20722;DHT22;10522;52.198;9.890;2022-09-09T15:05:24;26.50;99.90
20722;DHT22;10522;52.198;9.890;2022-09-09T15:07:53;25.20;99.90
20722;DHT22;10522;52.198;9.890;2022-09-09T15:10:19;24.10;99.90
20722;DHT22;10522;52.198;9.890;2022-09-09T15:12:44;23.60;99.90
20722;DHT22;10522;52.198;9.890;2022-09-09T15:15:10;24.00;99.90
20722;DHT22;10522;52.198;9.890;2022-09-09T15:17:36;25.40;99.90
20722;DHT22;10522;52.198;9.890;2022-09-09T15:20:03;27.20;99.90
20722;DHT22;10522;52.198;9.890;2022-09-09T15:22:31;28.20;99.90
20722;DHT22;10522;52.198;9.890;2022-09-09T15:24:57;29.00;99.90
20722;DHT22;10522;52.198;9.890;2022-09-09T15:27:22;28.70;99.90
20722;DHT22;10522;52.198;9.890;2022-09-09T15:29:49;28.90;99.90
20722;DHT22;10522;52.198;9.890;2022-09-09T15:32:15;29.00;99.90
20722;DHT22;10522;52.198;9.890;2022-09-09T15:34:41;29.00;99.90
20722;DHT22;10522;52.198;9.890;2022-09-09T15:37:10;28.30;99.90
20722;DHT22;10522;52.198;9.890;2022-09-09T15:39:36;28.50;99.90
20722;DHT22;10522;52.198;9.890;2022-09-09T15:42:02;28.90;99.90
20722;DHT22;10522;52.198;9.890;2022-09-09T15:44:27;29.30;99.90
20722;DHT22;10522;52.198;9.890;2022-09-09T15:46:53;28.80;99.90
20722;DHT22;10522;52.198;9.890;2022-09-09T15:49:24;28.40;99.90
20722;DHT22;10522;52.198;9.890;2022-09-09T15:51:55;28.10;99.90
20722;DHT22;10522;52.198;9.890;2022-09-09T15:54:23;27.30;99.90
20722;DHT22;10522;52.198;9.890;2022-09-09T15:56:54;25.70;99.90
20722;DHT22;10522;52.198;9.890;2022-09-09T15:59:25;24.80;99.90
20722;DHT22;10522;52.198;9.890;2022-09-09T16:01:51;24.30;99.90
20722;DHT22;10522;52.198;9.890;2022-09-09T16:04:21;24.80;99.90
20722;DHT22;10522;52.198;9.890;2022-09-09T16:06:51;25.60;99.90
20722;DHT22;10522;52.198;9.890;2022-09-09T16:09:44;26.60;99.90
20722;DHT22;10522;52.198;9.890;2022-09-09T16:12:16;26.50;99.90
20722;DHT22;10522;52.198;9.890;2022-09-09T16:14:41;25.80;99.90
20722;DHT22;10522;52.198;9.890;2022-09-09T16:17:07;25.00;99.90
20722;DHT22;10522;52.198;9.890;2022-09-09T16:19:33;25.00;99.90
20722;DHT22;10522;52.198;9.890;2022-09-09T16:22:00;25.20;99.90
20722;DHT22;10522;52.198;9.890;2022-09-09T16:24:26;24.90;99.90
20722;DHT22;10522;52.198;9.890;2022-09-09T16:29:27;25.00;99.90
20722;DHT22;10522;52.198;9.890;2022-09-09T16:31:54;24.10;99.90
20722;DHT22;10522;52.198;9.890;2022-09-09T16:34:20;23.40;99.90
20722;DHT22;10522;52.198;9.890;2022-09-09T16:36:46;22.70;99.90
20722;DHT22;10522;52.198;9.890;2022-09-09T16:39:15;22.10;99.90
20722;DHT22;10522;52.198;9.890;2022-09-09T16:41:42;21.90;99.90
20722;DHT22;10522;52.198;9.890;2022-09-09T16:44:10;21.70;99.90
20722;DHT22;10522;52.198;9.890;2022-09-09T16:46:39;21.40;99.90
20722;DHT22;10522;52.198;9.890;2022-09-09T16:49:07;21.20;99.90
20722;DHT22;10522;52.198;9.890;2022-09-09T16:51:45;21.00;99.90
20722;DHT22;10522;52.198;9.890;2022-09-09T16:57:08;20.70;99.90
20722;DHT22;10522;52.198;9.890;2022-09-09T17:02:10;20.40;99.90
20722;DHT22;10522;52.198;9.890;2022-09-09T17:04:35;20.30;99.90
20722;DHT22;10522;52.198;9.890;2022-09-09T17:07:02;20.20;99.90
20722;DHT22;10522;52.198;9.890;2022-09-09T17:09:28;20.20;99.90
20722;DHT22;10522;52.198;9.890;2022-09-09T17:11:54;20.10;99.90
20722;DHT22;10522;52.198;9.890;2022-09-09T17:14:25;20.00;99.90
20722;DHT22;10522;52.198;9.890;2022-09-09T17:36:29;19.30;99.90
20722;DHT22;10522;52.198;9.890;2022-09-09T17:39:20;19.20;99.90
20722;DHT22;10522;52.198;9.890;2022-09-09T17:41:51;19.20;99.90
20722;DHT22;10522;52.198;9.890;2022-09-09T17:44:24;19.20;99.90
20722;DHT22;10522;52.198;9.890;2022-09-09T17:47:10;19.10;99.90
20722;DHT22;10522;52.198;9.890;2022-09-09T17:49:42;19.10;99.90
20722;DHT22;10522;52.198;9.890;2022-09-09T17:52:08;19.00;99.90
20722;DHT22;10522;52.198;9.890;2022-09-09T17:54:34;19.00;99.90
20722;DHT22;10522;52.198;9.890;2022-09-09T17:57:02;18.90;99.90
20722;DHT22;10522;52.198;9.890;2022-09-09T17:59:48;18.90;99.90
20722;DHT22;10522;52.198;9.890;2022-09-09T18:02:26;18.90;99.90
20722;DHT22;10522;52.198;9.890;2022-09-09T18:04:54;18.90;99.90
20722;DHT22;10522;52.198;9.890;2022-09-09T18:07:19;18.90;99.90
20722;DHT22;10522;52.198;9.890;2022-09-09T18:09:45;18.90;99.90
20722;DHT22;10522;52.198;9.890;2022-09-09T18:12:26;18.80;99.90
20722;DHT22;10522;52.198;9.890;2022-09-09T18:14:54;18.80;99.90
20722;DHT22;10522;52.198;9.890;2022-09-09T18:17:51;18.90;99.90
20722;DHT22;10522;52.198;9.890;2022-09-09T18:20:18;18.90;99.90
20722;DHT22;10522;52.198;9.890;2022-09-09T18:22:44;18.80;99.90
20722;DHT22;10522;52.198;9.890;2022-09-09T18:25:09;18.80;99.90